<?xml version="1.0" encoding="UTF-8" standalone="no" ?>
<gpx xmlns="http://www.topografix.com/GPX/1/1" xmlns:xsi="http://www.w3.org/2001/XMLSchema-instance" xsi:schemaLocation="http://www.topografix.com/GPX/1/1 http://www.topografix.com/GPX/1/1/gpx.xsd" version="1.1" creator="VisuGPX - https://www.visugpx.com">
  <metadata>
    <name>83 - L - Lorgues</name>
    <desc><![CDATA[83 - L - Lorgues - rando crêpes Estello - St Jaume - chapelle St Peyre - St Jaume]]></desc>
  </metadata>
  <trk>
    <name><![CDATA[Lorgues rando crêpes après midi 2025-02-24-02]]></name>
    <trkseg>
      <trkpt lat="43.48145" lon="6.32852">
        <ele>173.3</ele>
        <time>2025-02-24T12:42:10Z</time>
      </trkpt>
      <trkpt lat="43.48146" lon="6.32851">
        <ele>173</ele>
        <time>2025-02-24T12:42:12Z</time>
      </trkpt>
      <trkpt lat="43.48142" lon="6.32862">
        <ele>174.9</ele>
        <time>2025-02-24T12:44:21Z</time>
      </trkpt>
      <trkpt lat="43.48142" lon="6.32874">
        <ele>175.1</ele>
        <time>2025-02-24T12:44:34Z</time>
      </trkpt>
      <trkpt lat="43.48143" lon="6.32887">
        <ele>175.1</ele>
        <time>2025-02-24T12:44:45Z</time>
      </trkpt>
      <trkpt lat="43.48144" lon="6.32899">
        <ele>169.3</ele>
        <time>2025-02-24T12:44:58Z</time>
      </trkpt>
      <trkpt lat="43.48145" lon="6.32912">
        <ele>149</ele>
        <time>2025-02-24T12:45:09Z</time>
      </trkpt>
      <trkpt lat="43.48147" lon="6.32924">
        <ele>146.4</ele>
        <time>2025-02-24T12:45:21Z</time>
      </trkpt>
      <trkpt lat="43.48149" lon="6.32937">
        <ele>146.2</ele>
        <time>2025-02-24T12:45:32Z</time>
      </trkpt>
      <trkpt lat="43.48151" lon="6.32949">
        <ele>146.1</ele>
        <time>2025-02-24T12:45:41Z</time>
      </trkpt>
      <trkpt lat="43.48155" lon="6.32962">
        <ele>145.6</ele>
        <time>2025-02-24T12:45:50Z</time>
      </trkpt>
      <trkpt lat="43.48157" lon="6.32975">
        <ele>145.3</ele>
        <time>2025-02-24T12:45:59Z</time>
      </trkpt>
      <trkpt lat="43.4816" lon="6.32988">
        <ele>144.9</ele>
        <time>2025-02-24T12:46:08Z</time>
      </trkpt>
      <trkpt lat="43.48165" lon="6.32999">
        <ele>144.5</ele>
        <time>2025-02-24T12:47:07Z</time>
      </trkpt>
      <trkpt lat="43.48167" lon="6.33011">
        <ele>146</ele>
        <time>2025-02-24T12:47:15Z</time>
      </trkpt>
      <trkpt lat="43.48171" lon="6.33024">
        <ele>145.5</ele>
        <time>2025-02-24T12:47:23Z</time>
      </trkpt>
      <trkpt lat="43.48173" lon="6.33037">
        <ele>145.3</ele>
        <time>2025-02-24T12:47:31Z</time>
      </trkpt>
      <trkpt lat="43.48177" lon="6.33051">
        <ele>145.9</ele>
        <time>2025-02-24T12:47:40Z</time>
      </trkpt>
      <trkpt lat="43.48179" lon="6.33065">
        <ele>146.2</ele>
        <time>2025-02-24T12:47:48Z</time>
      </trkpt>
      <trkpt lat="43.48184" lon="6.33076">
        <ele>146.8</ele>
        <time>2025-02-24T12:47:57Z</time>
      </trkpt>
      <trkpt lat="43.48193" lon="6.33083">
        <ele>147.6</ele>
        <time>2025-02-24T12:48:04Z</time>
      </trkpt>
      <trkpt lat="43.48201" lon="6.33091">
        <ele>148.3</ele>
        <time>2025-02-24T12:48:13Z</time>
      </trkpt>
      <trkpt lat="43.48209" lon="6.33097">
        <ele>149.3</ele>
        <time>2025-02-24T12:48:25Z</time>
      </trkpt>
      <trkpt lat="43.48218" lon="6.331">
        <ele>149.7</ele>
        <time>2025-02-24T12:48:37Z</time>
      </trkpt>
      <trkpt lat="43.48228" lon="6.33102">
        <ele>150.3</ele>
        <time>2025-02-24T12:48:47Z</time>
      </trkpt>
      <trkpt lat="43.48237" lon="6.33103">
        <ele>150.7</ele>
        <time>2025-02-24T12:48:56Z</time>
      </trkpt>
      <trkpt lat="43.48247" lon="6.33101">
        <ele>151.3</ele>
        <time>2025-02-24T12:49:06Z</time>
      </trkpt>
      <trkpt lat="43.48256" lon="6.33101">
        <ele>152</ele>
        <time>2025-02-24T12:49:14Z</time>
      </trkpt>
      <trkpt lat="43.48265" lon="6.33103">
        <ele>152.9</ele>
        <time>2025-02-24T12:49:23Z</time>
      </trkpt>
      <trkpt lat="43.48275" lon="6.33105">
        <ele>154.5</ele>
        <time>2025-02-24T12:49:33Z</time>
      </trkpt>
      <trkpt lat="43.48285" lon="6.33102">
        <ele>155.9</ele>
        <time>2025-02-24T12:49:46Z</time>
      </trkpt>
      <trkpt lat="43.48294" lon="6.33102">
        <ele>156.3</ele>
        <time>2025-02-24T12:50:33Z</time>
      </trkpt>
      <trkpt lat="43.48303" lon="6.33101">
        <ele>156.4</ele>
        <time>2025-02-24T12:50:44Z</time>
      </trkpt>
      <trkpt lat="43.48312" lon="6.33099">
        <ele>156.8</ele>
        <time>2025-02-24T12:50:54Z</time>
      </trkpt>
      <trkpt lat="43.48322" lon="6.33097">
        <ele>157.4</ele>
        <time>2025-02-24T12:51:05Z</time>
      </trkpt>
      <trkpt lat="43.48331" lon="6.33095">
        <ele>157.7</ele>
        <time>2025-02-24T12:51:20Z</time>
      </trkpt>
      <trkpt lat="43.4834" lon="6.33093">
        <ele>158.4</ele>
        <time>2025-02-24T12:51:29Z</time>
      </trkpt>
      <trkpt lat="43.4835" lon="6.33093">
        <ele>158.9</ele>
        <time>2025-02-24T12:51:39Z</time>
      </trkpt>
      <trkpt lat="43.48359" lon="6.33093">
        <ele>159.6</ele>
        <time>2025-02-24T12:51:49Z</time>
      </trkpt>
      <trkpt lat="43.48368" lon="6.33091">
        <ele>160</ele>
        <time>2025-02-24T12:51:59Z</time>
      </trkpt>
      <trkpt lat="43.48378" lon="6.33092">
        <ele>160.3</ele>
        <time>2025-02-24T12:52:09Z</time>
      </trkpt>
      <trkpt lat="43.48388" lon="6.33091">
        <ele>160.5</ele>
        <time>2025-02-24T12:52:19Z</time>
      </trkpt>
      <trkpt lat="43.48397" lon="6.33092">
        <ele>160.7</ele>
        <time>2025-02-24T12:52:29Z</time>
      </trkpt>
      <trkpt lat="43.48407" lon="6.33091">
        <ele>160.8</ele>
        <time>2025-02-24T12:52:38Z</time>
      </trkpt>
      <trkpt lat="43.48416" lon="6.33092">
        <ele>161.4</ele>
        <time>2025-02-24T12:53:00Z</time>
      </trkpt>
      <trkpt lat="43.48425" lon="6.33098">
        <ele>161.7</ele>
        <time>2025-02-24T12:53:24Z</time>
      </trkpt>
      <trkpt lat="43.48428" lon="6.3311">
        <ele>160.9</ele>
        <time>2025-02-24T12:53:37Z</time>
      </trkpt>
      <trkpt lat="43.4843" lon="6.33122">
        <ele>160.3</ele>
        <time>2025-02-24T12:53:47Z</time>
      </trkpt>
      <trkpt lat="43.48432" lon="6.33135">
        <ele>159.6</ele>
        <time>2025-02-24T12:53:57Z</time>
      </trkpt>
      <trkpt lat="43.48433" lon="6.33147">
        <ele>159.2</ele>
        <time>2025-02-24T12:54:08Z</time>
      </trkpt>
      <trkpt lat="43.48436" lon="6.3316">
        <ele>158.5</ele>
        <time>2025-02-24T12:54:18Z</time>
      </trkpt>
      <trkpt lat="43.4844" lon="6.33172">
        <ele>157.8</ele>
        <time>2025-02-24T12:54:30Z</time>
      </trkpt>
      <trkpt lat="43.48444" lon="6.33185">
        <ele>157.4</ele>
        <time>2025-02-24T12:54:39Z</time>
      </trkpt>
      <trkpt lat="43.48447" lon="6.33198">
        <ele>156.7</ele>
        <time>2025-02-24T12:54:49Z</time>
      </trkpt>
      <trkpt lat="43.4845" lon="6.33211">
        <ele>155.9</ele>
        <time>2025-02-24T12:54:59Z</time>
      </trkpt>
      <trkpt lat="43.48453" lon="6.33224">
        <ele>155</ele>
        <time>2025-02-24T12:55:09Z</time>
      </trkpt>
      <trkpt lat="43.48455" lon="6.33237">
        <ele>154.5</ele>
        <time>2025-02-24T12:55:19Z</time>
      </trkpt>
      <trkpt lat="43.48457" lon="6.3325">
        <ele>153.7</ele>
        <time>2025-02-24T12:55:31Z</time>
      </trkpt>
      <trkpt lat="43.48458" lon="6.33263">
        <ele>153</ele>
        <time>2025-02-24T12:55:41Z</time>
      </trkpt>
      <trkpt lat="43.48459" lon="6.33277">
        <ele>152.2</ele>
        <time>2025-02-24T12:55:52Z</time>
      </trkpt>
      <trkpt lat="43.4846" lon="6.33289">
        <ele>151.3</ele>
        <time>2025-02-24T12:56:05Z</time>
      </trkpt>
      <trkpt lat="43.48457" lon="6.33301">
        <ele>150.2</ele>
        <time>2025-02-24T12:56:15Z</time>
      </trkpt>
      <trkpt lat="43.48455" lon="6.33314">
        <ele>148.6</ele>
        <time>2025-02-24T12:56:26Z</time>
      </trkpt>
      <trkpt lat="43.48456" lon="6.33326">
        <ele>146.8</ele>
        <time>2025-02-24T12:56:45Z</time>
      </trkpt>
      <trkpt lat="43.48465" lon="6.33331">
        <ele>146.4</ele>
        <time>2025-02-24T12:57:01Z</time>
      </trkpt>
      <trkpt lat="43.48474" lon="6.33336">
        <ele>146</ele>
        <time>2025-02-24T12:57:13Z</time>
      </trkpt>
      <trkpt lat="43.48481" lon="6.33345">
        <ele>145.5</ele>
        <time>2025-02-24T12:57:23Z</time>
      </trkpt>
      <trkpt lat="43.48488" lon="6.33355">
        <ele>145.2</ele>
        <time>2025-02-24T12:57:32Z</time>
      </trkpt>
      <trkpt lat="43.48493" lon="6.33366">
        <ele>144.5</ele>
        <time>2025-02-24T12:57:47Z</time>
      </trkpt>
      <trkpt lat="43.48493" lon="6.33379">
        <ele>144.4</ele>
        <time>2025-02-24T12:57:59Z</time>
      </trkpt>
      <trkpt lat="43.48492" lon="6.33391">
        <ele>143.9</ele>
        <time>2025-02-24T12:58:13Z</time>
      </trkpt>
      <trkpt lat="43.48491" lon="6.33404">
        <ele>143.5</ele>
        <time>2025-02-24T12:58:21Z</time>
      </trkpt>
      <trkpt lat="43.4849" lon="6.33417">
        <ele>143.2</ele>
        <time>2025-02-24T12:58:35Z</time>
      </trkpt>
      <trkpt lat="43.48491" lon="6.3343">
        <ele>143.5</ele>
        <time>2025-02-24T12:59:07Z</time>
      </trkpt>
      <trkpt lat="43.48487" lon="6.33442">
        <ele>144.5</ele>
        <time>2025-02-24T12:59:22Z</time>
      </trkpt>
      <trkpt lat="43.48485" lon="6.33454">
        <ele>145.4</ele>
        <time>2025-02-24T12:59:35Z</time>
      </trkpt>
      <trkpt lat="43.48485" lon="6.33467">
        <ele>146.2</ele>
        <time>2025-02-24T12:59:46Z</time>
      </trkpt>
      <trkpt lat="43.48487" lon="6.3348">
        <ele>146.8</ele>
        <time>2025-02-24T12:59:56Z</time>
      </trkpt>
      <trkpt lat="43.48489" lon="6.33492">
        <ele>146.7</ele>
        <time>2025-02-24T13:00:10Z</time>
      </trkpt>
      <trkpt lat="43.48493" lon="6.33504">
        <ele>145.8</ele>
        <time>2025-02-24T13:00:26Z</time>
      </trkpt>
      <trkpt lat="43.48497" lon="6.33517">
        <ele>145.3</ele>
        <time>2025-02-24T13:00:38Z</time>
      </trkpt>
      <trkpt lat="43.48502" lon="6.33528">
        <ele>144.5</ele>
        <time>2025-02-24T13:00:52Z</time>
      </trkpt>
      <trkpt lat="43.48508" lon="6.33537">
        <ele>143.9</ele>
        <time>2025-02-24T13:01:02Z</time>
      </trkpt>
      <trkpt lat="43.48513" lon="6.33549">
        <ele>143.1</ele>
        <time>2025-02-24T13:01:12Z</time>
      </trkpt>
      <trkpt lat="43.48519" lon="6.33558">
        <ele>142.6</ele>
        <time>2025-02-24T13:01:21Z</time>
      </trkpt>
      <trkpt lat="43.48523" lon="6.3357">
        <ele>142.2</ele>
        <time>2025-02-24T13:01:29Z</time>
      </trkpt>
      <trkpt lat="43.48526" lon="6.33583">
        <ele>142.1</ele>
        <time>2025-02-24T13:01:39Z</time>
      </trkpt>
      <trkpt lat="43.48531" lon="6.33594">
        <ele>142.4</ele>
        <time>2025-02-24T13:01:48Z</time>
      </trkpt>
      <trkpt lat="43.48535" lon="6.33605">
        <ele>142.6</ele>
        <time>2025-02-24T13:01:58Z</time>
      </trkpt>
      <trkpt lat="43.4854" lon="6.33616">
        <ele>143</ele>
        <time>2025-02-24T13:02:07Z</time>
      </trkpt>
      <trkpt lat="43.48547" lon="6.33625">
        <ele>143.7</ele>
        <time>2025-02-24T13:02:16Z</time>
      </trkpt>
      <trkpt lat="43.48554" lon="6.33632">
        <ele>143.9</ele>
        <time>2025-02-24T13:02:25Z</time>
      </trkpt>
      <trkpt lat="43.48562" lon="6.33639">
        <ele>143</ele>
        <time>2025-02-24T13:02:35Z</time>
      </trkpt>
      <trkpt lat="43.48571" lon="6.33645">
        <ele>142</ele>
        <time>2025-02-24T13:02:44Z</time>
      </trkpt>
      <trkpt lat="43.48578" lon="6.33653">
        <ele>141.3</ele>
        <time>2025-02-24T13:02:53Z</time>
      </trkpt>
      <trkpt lat="43.48586" lon="6.3366">
        <ele>140.8</ele>
        <time>2025-02-24T13:03:03Z</time>
      </trkpt>
      <trkpt lat="43.48594" lon="6.33669">
        <ele>140.4</ele>
        <time>2025-02-24T13:03:12Z</time>
      </trkpt>
      <trkpt lat="43.486" lon="6.33679">
        <ele>140.2</ele>
        <time>2025-02-24T13:03:23Z</time>
      </trkpt>
      <trkpt lat="43.48606" lon="6.33688">
        <ele>140.2</ele>
        <time>2025-02-24T13:03:35Z</time>
      </trkpt>
      <trkpt lat="43.48609" lon="6.33701">
        <ele>140.1</ele>
        <time>2025-02-24T13:03:48Z</time>
      </trkpt>
      <trkpt lat="43.48608" lon="6.33715">
        <ele>139.8</ele>
        <time>2025-02-24T13:03:58Z</time>
      </trkpt>
      <trkpt lat="43.48604" lon="6.33726">
        <ele>139.6</ele>
        <time>2025-02-24T13:04:10Z</time>
      </trkpt>
      <trkpt lat="43.48595" lon="6.33728">
        <ele>139.4</ele>
        <time>2025-02-24T13:04:31Z</time>
      </trkpt>
      <trkpt lat="43.48585" lon="6.33728">
        <ele>139.2</ele>
        <time>2025-02-24T13:04:41Z</time>
      </trkpt>
      <trkpt lat="43.48576" lon="6.33729">
        <ele>138.7</ele>
        <time>2025-02-24T13:04:52Z</time>
      </trkpt>
      <trkpt lat="43.48567" lon="6.33731">
        <ele>139.3</ele>
        <time>2025-02-24T13:05:03Z</time>
      </trkpt>
      <trkpt lat="43.48558" lon="6.33738">
        <ele>139</ele>
        <time>2025-02-24T13:05:31Z</time>
      </trkpt>
      <trkpt lat="43.48549" lon="6.33734">
        <ele>139</ele>
        <time>2025-02-24T13:05:54Z</time>
      </trkpt>
      <trkpt lat="43.48545" lon="6.33723">
        <ele>138.4</ele>
        <time>2025-02-24T13:06:08Z</time>
      </trkpt>
      <trkpt lat="43.48543" lon="6.3371">
        <ele>138.7</ele>
        <time>2025-02-24T13:06:19Z</time>
      </trkpt>
      <trkpt lat="43.48535" lon="6.33702">
        <ele>138.9</ele>
        <time>2025-02-24T13:06:30Z</time>
      </trkpt>
      <trkpt lat="43.48526" lon="6.33699">
        <ele>138.1</ele>
        <time>2025-02-24T13:06:46Z</time>
      </trkpt>
      <trkpt lat="43.48518" lon="6.33694">
        <ele>138</ele>
        <time>2025-02-24T13:07:00Z</time>
      </trkpt>
      <trkpt lat="43.48508" lon="6.33691">
        <ele>138.1</ele>
        <time>2025-02-24T13:07:09Z</time>
      </trkpt>
      <trkpt lat="43.48499" lon="6.33687">
        <ele>138</ele>
        <time>2025-02-24T13:07:20Z</time>
      </trkpt>
      <trkpt lat="43.48491" lon="6.33682">
        <ele>137.9</ele>
        <time>2025-02-24T13:07:35Z</time>
      </trkpt>
      <trkpt lat="43.48484" lon="6.33673">
        <ele>137.6</ele>
        <time>2025-02-24T13:07:47Z</time>
      </trkpt>
      <trkpt lat="43.48475" lon="6.33669">
        <ele>137.8</ele>
        <time>2025-02-24T13:07:56Z</time>
      </trkpt>
      <trkpt lat="43.48466" lon="6.33667">
        <ele>137.5</ele>
        <time>2025-02-24T13:08:06Z</time>
      </trkpt>
      <trkpt lat="43.48457" lon="6.33672">
        <ele>137.5</ele>
        <time>2025-02-24T13:08:12Z</time>
      </trkpt>
      <trkpt lat="43.48448" lon="6.33671">
        <ele>137.3</ele>
        <time>2025-02-24T13:08:22Z</time>
      </trkpt>
      <trkpt lat="43.4844" lon="6.33664">
        <ele>137.2</ele>
        <time>2025-02-24T13:08:34Z</time>
      </trkpt>
      <trkpt lat="43.48432" lon="6.33657">
        <ele>137.1</ele>
        <time>2025-02-24T13:08:52Z</time>
      </trkpt>
      <trkpt lat="43.48424" lon="6.33651">
        <ele>136.7</ele>
        <time>2025-02-24T13:09:02Z</time>
      </trkpt>
      <trkpt lat="43.48418" lon="6.33641">
        <ele>136.7</ele>
        <time>2025-02-24T13:09:13Z</time>
      </trkpt>
      <trkpt lat="43.48412" lon="6.33631">
        <ele>136.5</ele>
        <time>2025-02-24T13:09:23Z</time>
      </trkpt>
      <trkpt lat="43.48405" lon="6.33621">
        <ele>136.1</ele>
        <time>2025-02-24T13:09:34Z</time>
      </trkpt>
      <trkpt lat="43.48399" lon="6.3361">
        <ele>135.8</ele>
        <time>2025-02-24T13:09:45Z</time>
      </trkpt>
      <trkpt lat="43.48393" lon="6.336">
        <ele>135.5</ele>
        <time>2025-02-24T13:09:54Z</time>
      </trkpt>
      <trkpt lat="43.48387" lon="6.3359">
        <ele>135.5</ele>
        <time>2025-02-24T13:10:01Z</time>
      </trkpt>
      <trkpt lat="43.48381" lon="6.3358">
        <ele>135.4</ele>
        <time>2025-02-24T13:10:08Z</time>
      </trkpt>
      <trkpt lat="43.48375" lon="6.3357">
        <ele>135.1</ele>
        <time>2025-02-24T13:10:15Z</time>
      </trkpt>
      <trkpt lat="43.48368" lon="6.3356">
        <ele>134.7</ele>
        <time>2025-02-24T13:10:23Z</time>
      </trkpt>
      <trkpt lat="43.48362" lon="6.3355">
        <ele>134</ele>
        <time>2025-02-24T13:10:34Z</time>
      </trkpt>
      <trkpt lat="43.48354" lon="6.33543">
        <ele>133.4</ele>
        <time>2025-02-24T13:10:43Z</time>
      </trkpt>
      <trkpt lat="43.48345" lon="6.33541">
        <ele>132.9</ele>
        <time>2025-02-24T13:10:53Z</time>
      </trkpt>
      <trkpt lat="43.48336" lon="6.33538">
        <ele>132.5</ele>
        <time>2025-02-24T13:11:04Z</time>
      </trkpt>
      <trkpt lat="43.48327" lon="6.33538">
        <ele>132.3</ele>
        <time>2025-02-24T13:11:15Z</time>
      </trkpt>
      <trkpt lat="43.48318" lon="6.33539">
        <ele>132.4</ele>
        <time>2025-02-24T13:11:23Z</time>
      </trkpt>
      <trkpt lat="43.48308" lon="6.3354">
        <ele>132.4</ele>
        <time>2025-02-24T13:11:32Z</time>
      </trkpt>
      <trkpt lat="43.48299" lon="6.33541">
        <ele>132.2</ele>
        <time>2025-02-24T13:11:43Z</time>
      </trkpt>
      <trkpt lat="43.4829" lon="6.33544">
        <ele>131.9</ele>
        <time>2025-02-24T13:11:53Z</time>
      </trkpt>
      <trkpt lat="43.48281" lon="6.33549">
        <ele>131.6</ele>
        <time>2025-02-24T13:12:02Z</time>
      </trkpt>
      <trkpt lat="43.48273" lon="6.33556">
        <ele>131.3</ele>
        <time>2025-02-24T13:12:13Z</time>
      </trkpt>
      <trkpt lat="43.48265" lon="6.33565">
        <ele>131.2</ele>
        <time>2025-02-24T13:12:24Z</time>
      </trkpt>
      <trkpt lat="43.48259" lon="6.33574">
        <ele>131.5</ele>
        <time>2025-02-24T13:12:34Z</time>
      </trkpt>
      <trkpt lat="43.48253" lon="6.33585">
        <ele>131.2</ele>
        <time>2025-02-24T13:12:44Z</time>
      </trkpt>
      <trkpt lat="43.48254" lon="6.33599">
        <ele>131.4</ele>
        <time>2025-02-24T13:13:11Z</time>
      </trkpt>
      <trkpt lat="43.48246" lon="6.33605">
        <ele>131.6</ele>
        <time>2025-02-24T13:17:36Z</time>
      </trkpt>
      <trkpt lat="43.48242" lon="6.33617">
        <ele>131.2</ele>
        <time>2025-02-24T13:17:51Z</time>
      </trkpt>
      <trkpt lat="43.48239" lon="6.33629">
        <ele>131.4</ele>
        <time>2025-02-24T13:18:01Z</time>
      </trkpt>
      <trkpt lat="43.48236" lon="6.33641">
        <ele>131.6</ele>
        <time>2025-02-24T13:18:11Z</time>
      </trkpt>
      <trkpt lat="43.48233" lon="6.33653">
        <ele>132.1</ele>
        <time>2025-02-24T13:18:22Z</time>
      </trkpt>
      <trkpt lat="43.48229" lon="6.33665">
        <ele>132.3</ele>
        <time>2025-02-24T13:18:31Z</time>
      </trkpt>
      <trkpt lat="43.48225" lon="6.33677">
        <ele>132.3</ele>
        <time>2025-02-24T13:18:41Z</time>
      </trkpt>
      <trkpt lat="43.48223" lon="6.33689">
        <ele>132.1</ele>
        <time>2025-02-24T13:18:52Z</time>
      </trkpt>
      <trkpt lat="43.48221" lon="6.33702">
        <ele>132.3</ele>
        <time>2025-02-24T13:19:02Z</time>
      </trkpt>
      <trkpt lat="43.48218" lon="6.33715">
        <ele>132.5</ele>
        <time>2025-02-24T13:19:12Z</time>
      </trkpt>
      <trkpt lat="43.48214" lon="6.33726">
        <ele>132.8</ele>
        <time>2025-02-24T13:19:22Z</time>
      </trkpt>
      <trkpt lat="43.48211" lon="6.33738">
        <ele>133.4</ele>
        <time>2025-02-24T13:19:31Z</time>
      </trkpt>
      <trkpt lat="43.4821" lon="6.33751">
        <ele>134.5</ele>
        <time>2025-02-24T13:19:43Z</time>
      </trkpt>
      <trkpt lat="43.48213" lon="6.33763">
        <ele>136.4</ele>
        <time>2025-02-24T13:20:03Z</time>
      </trkpt>
      <trkpt lat="43.4822" lon="6.3377">
        <ele>138</ele>
        <time>2025-02-24T13:20:18Z</time>
      </trkpt>
      <trkpt lat="43.48229" lon="6.33775">
        <ele>140.9</ele>
        <time>2025-02-24T13:20:37Z</time>
      </trkpt>
      <trkpt lat="43.48224" lon="6.33786">
        <ele>142.2</ele>
        <time>2025-02-24T13:20:55Z</time>
      </trkpt>
      <trkpt lat="43.48215" lon="6.33786">
        <ele>142.9</ele>
        <time>2025-02-24T13:21:08Z</time>
      </trkpt>
      <trkpt lat="43.48206" lon="6.33786">
        <ele>144.4</ele>
        <time>2025-02-24T13:21:22Z</time>
      </trkpt>
      <trkpt lat="43.48197" lon="6.33787">
        <ele>146</ele>
        <time>2025-02-24T13:21:37Z</time>
      </trkpt>
      <trkpt lat="43.48189" lon="6.33792">
        <ele>147.2</ele>
        <time>2025-02-24T13:21:50Z</time>
      </trkpt>
      <trkpt lat="43.48191" lon="6.33804">
        <ele>151.1</ele>
        <time>2025-02-24T13:24:01Z</time>
      </trkpt>
      <trkpt lat="43.48201" lon="6.33804">
        <ele>151.6</ele>
        <time>2025-02-24T13:24:13Z</time>
      </trkpt>
      <trkpt lat="43.48209" lon="6.3381">
        <ele>153.2</ele>
        <time>2025-02-24T13:25:21Z</time>
      </trkpt>
      <trkpt lat="43.48218" lon="6.33818">
        <ele>154.2</ele>
        <time>2025-02-24T13:25:35Z</time>
      </trkpt>
      <trkpt lat="43.48224" lon="6.33828">
        <ele>155.3</ele>
        <time>2025-02-24T13:25:46Z</time>
      </trkpt>
      <trkpt lat="43.48231" lon="6.33837">
        <ele>156.4</ele>
        <time>2025-02-24T13:25:57Z</time>
      </trkpt>
      <trkpt lat="43.48235" lon="6.33848">
        <ele>157.8</ele>
        <time>2025-02-24T13:26:08Z</time>
      </trkpt>
      <trkpt lat="43.48237" lon="6.3386">
        <ele>159.8</ele>
        <time>2025-02-24T13:26:23Z</time>
      </trkpt>
      <trkpt lat="43.48235" lon="6.33873">
        <ele>162.2</ele>
        <time>2025-02-24T13:26:39Z</time>
      </trkpt>
      <trkpt lat="43.48233" lon="6.33886">
        <ele>164</ele>
        <time>2025-02-24T13:26:52Z</time>
      </trkpt>
      <trkpt lat="43.48224" lon="6.33887">
        <ele>165.9</ele>
        <time>2025-02-24T13:27:09Z</time>
      </trkpt>
      <trkpt lat="43.48215" lon="6.33881">
        <ele>166.7</ele>
        <time>2025-02-24T13:27:23Z</time>
      </trkpt>
      <trkpt lat="43.48206" lon="6.33882">
        <ele>169.1</ele>
        <time>2025-02-24T13:27:55Z</time>
      </trkpt>
      <trkpt lat="43.48206" lon="6.33895">
        <ele>170.2</ele>
        <time>2025-02-24T13:29:36Z</time>
      </trkpt>
      <trkpt lat="43.48214" lon="6.33902">
        <ele>169.6</ele>
        <time>2025-02-24T13:29:49Z</time>
      </trkpt>
      <trkpt lat="43.48218" lon="6.33913">
        <ele>169.5</ele>
        <time>2025-02-24T13:30:00Z</time>
      </trkpt>
      <trkpt lat="43.48226" lon="6.33919">
        <ele>169.2</ele>
        <time>2025-02-24T13:30:19Z</time>
      </trkpt>
      <trkpt lat="43.48234" lon="6.33925">
        <ele>169.8</ele>
        <time>2025-02-24T13:31:47Z</time>
      </trkpt>
      <trkpt lat="43.48243" lon="6.33919">
        <ele>169.5</ele>
        <time>2025-02-24T13:32:01Z</time>
      </trkpt>
      <trkpt lat="43.48251" lon="6.33915">
        <ele>169.7</ele>
        <time>2025-02-24T13:32:13Z</time>
      </trkpt>
      <trkpt lat="43.4826" lon="6.3391">
        <ele>170.2</ele>
        <time>2025-02-24T13:32:26Z</time>
      </trkpt>
      <trkpt lat="43.48268" lon="6.33904">
        <ele>170.5</ele>
        <time>2025-02-24T13:32:38Z</time>
      </trkpt>
      <trkpt lat="43.48276" lon="6.33899">
        <ele>171.1</ele>
        <time>2025-02-24T13:32:50Z</time>
      </trkpt>
      <trkpt lat="43.48285" lon="6.33895">
        <ele>171.6</ele>
        <time>2025-02-24T13:33:00Z</time>
      </trkpt>
      <trkpt lat="43.48292" lon="6.33888">
        <ele>172.9</ele>
        <time>2025-02-24T13:33:13Z</time>
      </trkpt>
      <trkpt lat="43.483" lon="6.33881">
        <ele>174.7</ele>
        <time>2025-02-24T13:33:27Z</time>
      </trkpt>
      <trkpt lat="43.48308" lon="6.33874">
        <ele>177</ele>
        <time>2025-02-24T13:33:44Z</time>
      </trkpt>
      <trkpt lat="43.48317" lon="6.33869">
        <ele>178.7</ele>
        <time>2025-02-24T13:34:05Z</time>
      </trkpt>
      <trkpt lat="43.48325" lon="6.33862">
        <ele>180</ele>
        <time>2025-02-24T13:34:21Z</time>
      </trkpt>
      <trkpt lat="43.48332" lon="6.33854">
        <ele>181.2</ele>
        <time>2025-02-24T13:34:34Z</time>
      </trkpt>
      <trkpt lat="43.48339" lon="6.33846">
        <ele>182.4</ele>
        <time>2025-02-24T13:34:45Z</time>
      </trkpt>
      <trkpt lat="43.48347" lon="6.33838">
        <ele>183.7</ele>
        <time>2025-02-24T13:34:59Z</time>
      </trkpt>
      <trkpt lat="43.48356" lon="6.33834">
        <ele>184.7</ele>
        <time>2025-02-24T13:35:10Z</time>
      </trkpt>
      <trkpt lat="43.48356" lon="6.33821">
        <ele>183.9</ele>
        <time>2025-02-24T13:35:59Z</time>
      </trkpt>
      <trkpt lat="43.48359" lon="6.33808">
        <ele>183</ele>
        <time>2025-02-24T13:36:09Z</time>
      </trkpt>
      <trkpt lat="43.48361" lon="6.33796">
        <ele>182.4</ele>
        <time>2025-02-24T13:36:19Z</time>
      </trkpt>
      <trkpt lat="43.48361" lon="6.33783">
        <ele>181.3</ele>
        <time>2025-02-24T13:36:31Z</time>
      </trkpt>
      <trkpt lat="43.48363" lon="6.33771">
        <ele>180.2</ele>
        <time>2025-02-24T13:36:45Z</time>
      </trkpt>
      <trkpt lat="43.48364" lon="6.33758">
        <ele>178.8</ele>
        <time>2025-02-24T13:36:56Z</time>
      </trkpt>
      <trkpt lat="43.48368" lon="6.33746">
        <ele>177.8</ele>
        <time>2025-02-24T13:37:07Z</time>
      </trkpt>
      <trkpt lat="43.48373" lon="6.33734">
        <ele>176.3</ele>
        <time>2025-02-24T13:37:19Z</time>
      </trkpt>
      <trkpt lat="43.48377" lon="6.33723">
        <ele>174.9</ele>
        <time>2025-02-24T13:37:49Z</time>
      </trkpt>
      <trkpt lat="43.48379" lon="6.33711">
        <ele>173.5</ele>
        <time>2025-02-24T13:38:01Z</time>
      </trkpt>
      <trkpt lat="43.48371" lon="6.33703">
        <ele>172</ele>
        <time>2025-02-24T13:38:13Z</time>
      </trkpt>
      <trkpt lat="43.48362" lon="6.33707">
        <ele>172.5</ele>
        <time>2025-02-24T13:38:25Z</time>
      </trkpt>
      <trkpt lat="43.48357" lon="6.33718">
        <ele>171.3</ele>
        <time>2025-02-24T13:38:37Z</time>
      </trkpt>
      <trkpt lat="43.48364" lon="6.33709">
        <ele>172.6</ele>
        <time>2025-02-24T13:39:22Z</time>
      </trkpt>
      <trkpt lat="43.48363" lon="6.33695">
        <ele>173.7</ele>
        <time>2025-02-24T13:39:34Z</time>
      </trkpt>
      <trkpt lat="43.4836" lon="6.33683">
        <ele>173.6</ele>
        <time>2025-02-24T13:39:44Z</time>
      </trkpt>
      <trkpt lat="43.4836" lon="6.3367">
        <ele>174.5</ele>
        <time>2025-02-24T13:39:58Z</time>
      </trkpt>
      <trkpt lat="43.48354" lon="6.3366">
        <ele>175.4</ele>
        <time>2025-02-24T13:40:10Z</time>
      </trkpt>
      <trkpt lat="43.48345" lon="6.33656">
        <ele>174.7</ele>
        <time>2025-02-24T13:40:24Z</time>
      </trkpt>
      <trkpt lat="43.48336" lon="6.33659">
        <ele>174.9</ele>
        <time>2025-02-24T13:40:38Z</time>
      </trkpt>
      <trkpt lat="43.48327" lon="6.33662">
        <ele>173.7</ele>
        <time>2025-02-24T13:42:04Z</time>
      </trkpt>
      <trkpt lat="43.48322" lon="6.33674">
        <ele>174.2</ele>
        <time>2025-02-24T13:45:45Z</time>
      </trkpt>
      <trkpt lat="43.48326" lon="6.33662">
        <ele>174</ele>
        <time>2025-02-24T13:48:51Z</time>
      </trkpt>
      <trkpt lat="43.48324" lon="6.33675">
        <ele>173.1</ele>
        <time>2025-02-24T13:51:10Z</time>
      </trkpt>
      <trkpt lat="43.48331" lon="6.33683">
        <ele>172.9</ele>
        <time>2025-02-24T13:51:25Z</time>
      </trkpt>
      <trkpt lat="43.4834" lon="6.33689">
        <ele>172.7</ele>
        <time>2025-02-24T13:51:39Z</time>
      </trkpt>
      <trkpt lat="43.4833" lon="6.33691">
        <ele>171.2</ele>
        <time>2025-02-24T13:52:19Z</time>
      </trkpt>
      <trkpt lat="43.48322" lon="6.33683">
        <ele>171.1</ele>
        <time>2025-02-24T13:52:30Z</time>
      </trkpt>
      <trkpt lat="43.48317" lon="6.33672">
        <ele>170.8</ele>
        <time>2025-02-24T13:52:43Z</time>
      </trkpt>
      <trkpt lat="43.4832" lon="6.3366">
        <ele>171.3</ele>
        <time>2025-02-24T13:53:02Z</time>
      </trkpt>
      <trkpt lat="43.48327" lon="6.33651">
        <ele>172.1</ele>
        <time>2025-02-24T13:53:13Z</time>
      </trkpt>
      <trkpt lat="43.48337" lon="6.33651">
        <ele>172.9</ele>
        <time>2025-02-24T13:53:26Z</time>
      </trkpt>
      <trkpt lat="43.48346" lon="6.33653">
        <ele>175.1</ele>
        <time>2025-02-24T13:54:00Z</time>
      </trkpt>
      <trkpt lat="43.48355" lon="6.33659">
        <ele>175.4</ele>
        <time>2025-02-24T13:54:11Z</time>
      </trkpt>
      <trkpt lat="43.48359" lon="6.33671">
        <ele>174.9</ele>
        <time>2025-02-24T13:54:24Z</time>
      </trkpt>
      <trkpt lat="43.4836" lon="6.33683">
        <ele>174.1</ele>
        <time>2025-02-24T13:54:34Z</time>
      </trkpt>
      <trkpt lat="43.48367" lon="6.33692">
        <ele>173.2</ele>
        <time>2025-02-24T13:55:23Z</time>
      </trkpt>
      <trkpt lat="43.48375" lon="6.33699">
        <ele>173</ele>
        <time>2025-02-24T13:55:52Z</time>
      </trkpt>
      <trkpt lat="43.48383" lon="6.33706">
        <ele>172.2</ele>
        <time>2025-02-24T13:56:05Z</time>
      </trkpt>
      <trkpt lat="43.48381" lon="6.33719">
        <ele>174.2</ele>
        <time>2025-02-24T13:56:25Z</time>
      </trkpt>
      <trkpt lat="43.48377" lon="6.3373">
        <ele>175.8</ele>
        <time>2025-02-24T13:56:41Z</time>
      </trkpt>
      <trkpt lat="43.48371" lon="6.3374">
        <ele>177.3</ele>
        <time>2025-02-24T13:56:57Z</time>
      </trkpt>
      <trkpt lat="43.4837" lon="6.33754">
        <ele>178.8</ele>
        <time>2025-02-24T13:57:11Z</time>
      </trkpt>
      <trkpt lat="43.48367" lon="6.33767">
        <ele>179.5</ele>
        <time>2025-02-24T13:57:19Z</time>
      </trkpt>
      <trkpt lat="43.48366" lon="6.3378">
        <ele>180.8</ele>
        <time>2025-02-24T13:57:31Z</time>
      </trkpt>
      <trkpt lat="43.48367" lon="6.33792">
        <ele>182</ele>
        <time>2025-02-24T13:57:42Z</time>
      </trkpt>
      <trkpt lat="43.48366" lon="6.33807">
        <ele>182.9</ele>
        <time>2025-02-24T13:57:56Z</time>
      </trkpt>
      <trkpt lat="43.48361" lon="6.33818">
        <ele>183.4</ele>
        <time>2025-02-24T13:58:06Z</time>
      </trkpt>
      <trkpt lat="43.48359" lon="6.33831">
        <ele>185.1</ele>
        <time>2025-02-24T13:58:19Z</time>
      </trkpt>
      <trkpt lat="43.48352" lon="6.33838">
        <ele>184.9</ele>
        <time>2025-02-24T13:58:32Z</time>
      </trkpt>
      <trkpt lat="43.48344" lon="6.33845">
        <ele>183.6</ele>
        <time>2025-02-24T13:58:45Z</time>
      </trkpt>
      <trkpt lat="43.48336" lon="6.33852">
        <ele>182.3</ele>
        <time>2025-02-24T13:58:57Z</time>
      </trkpt>
      <trkpt lat="43.48329" lon="6.3386">
        <ele>181.3</ele>
        <time>2025-02-24T13:59:08Z</time>
      </trkpt>
      <trkpt lat="43.48321" lon="6.33868">
        <ele>180.2</ele>
        <time>2025-02-24T13:59:18Z</time>
      </trkpt>
      <trkpt lat="43.48312" lon="6.33872">
        <ele>178.4</ele>
        <time>2025-02-24T13:59:29Z</time>
      </trkpt>
      <trkpt lat="43.48305" lon="6.33879">
        <ele>176.6</ele>
        <time>2025-02-24T13:59:39Z</time>
      </trkpt>
      <trkpt lat="43.48297" lon="6.33887">
        <ele>174.7</ele>
        <time>2025-02-24T13:59:49Z</time>
      </trkpt>
      <trkpt lat="43.48289" lon="6.33894">
        <ele>173.4</ele>
        <time>2025-02-24T14:00:02Z</time>
      </trkpt>
      <trkpt lat="43.48281" lon="6.33901">
        <ele>172.6</ele>
        <time>2025-02-24T14:00:15Z</time>
      </trkpt>
      <trkpt lat="43.48272" lon="6.33905">
        <ele>171.9</ele>
        <time>2025-02-24T14:00:25Z</time>
      </trkpt>
      <trkpt lat="43.48264" lon="6.3391">
        <ele>171.4</ele>
        <time>2025-02-24T14:00:35Z</time>
      </trkpt>
      <trkpt lat="43.48257" lon="6.33918">
        <ele>171</ele>
        <time>2025-02-24T14:01:06Z</time>
      </trkpt>
      <trkpt lat="43.48248" lon="6.33919">
        <ele>171.1</ele>
        <time>2025-02-24T14:01:56Z</time>
      </trkpt>
      <trkpt lat="43.48239" lon="6.33924">
        <ele>170.8</ele>
        <time>2025-02-24T14:02:09Z</time>
      </trkpt>
      <trkpt lat="43.4823" lon="6.33928">
        <ele>171.2</ele>
        <time>2025-02-24T14:02:21Z</time>
      </trkpt>
      <trkpt lat="43.48222" lon="6.33921">
        <ele>170.7</ele>
        <time>2025-02-24T14:02:35Z</time>
      </trkpt>
      <trkpt lat="43.48217" lon="6.33911">
        <ele>171.1</ele>
        <time>2025-02-24T14:02:47Z</time>
      </trkpt>
      <trkpt lat="43.48212" lon="6.339">
        <ele>171.3</ele>
        <time>2025-02-24T14:02:57Z</time>
      </trkpt>
      <trkpt lat="43.48206" lon="6.3389">
        <ele>171.3</ele>
        <time>2025-02-24T14:03:07Z</time>
      </trkpt>
      <trkpt lat="43.48215" lon="6.33889">
        <ele>169.4</ele>
        <time>2025-02-24T14:03:27Z</time>
      </trkpt>
      <trkpt lat="43.48222" lon="6.33898">
        <ele>168.4</ele>
        <time>2025-02-24T14:03:40Z</time>
      </trkpt>
      <trkpt lat="43.4823" lon="6.33891">
        <ele>166.4</ele>
        <time>2025-02-24T14:03:55Z</time>
      </trkpt>
      <trkpt lat="43.48235" lon="6.3388">
        <ele>164.4</ele>
        <time>2025-02-24T14:04:09Z</time>
      </trkpt>
      <trkpt lat="43.48236" lon="6.33867">
        <ele>162.9</ele>
        <time>2025-02-24T14:04:22Z</time>
      </trkpt>
      <trkpt lat="43.48235" lon="6.33854">
        <ele>161.1</ele>
        <time>2025-02-24T14:04:34Z</time>
      </trkpt>
      <trkpt lat="43.48231" lon="6.33841">
        <ele>159.6</ele>
        <time>2025-02-24T14:04:45Z</time>
      </trkpt>
      <trkpt lat="43.48224" lon="6.33833">
        <ele>158.5</ele>
        <time>2025-02-24T14:04:55Z</time>
      </trkpt>
      <trkpt lat="43.48217" lon="6.33823">
        <ele>157.5</ele>
        <time>2025-02-24T14:05:06Z</time>
      </trkpt>
      <trkpt lat="43.4821" lon="6.33816">
        <ele>156.4</ele>
        <time>2025-02-24T14:05:17Z</time>
      </trkpt>
      <trkpt lat="43.48202" lon="6.3381">
        <ele>155.5</ele>
        <time>2025-02-24T14:05:26Z</time>
      </trkpt>
      <trkpt lat="43.48193" lon="6.33806">
        <ele>154</ele>
        <time>2025-02-24T14:05:40Z</time>
      </trkpt>
      <trkpt lat="43.48187" lon="6.33796">
        <ele>152.6</ele>
        <time>2025-02-24T14:05:58Z</time>
      </trkpt>
      <trkpt lat="43.48191" lon="6.33785">
        <ele>151.7</ele>
        <time>2025-02-24T14:07:56Z</time>
      </trkpt>
      <trkpt lat="43.482" lon="6.33782">
        <ele>150.4</ele>
        <time>2025-02-24T14:08:14Z</time>
      </trkpt>
      <trkpt lat="43.4821" lon="6.33781">
        <ele>148.8</ele>
        <time>2025-02-24T14:08:24Z</time>
      </trkpt>
      <trkpt lat="43.4822" lon="6.33782">
        <ele>147.2</ele>
        <time>2025-02-24T14:08:36Z</time>
      </trkpt>
      <trkpt lat="43.48229" lon="6.33777">
        <ele>146.3</ele>
        <time>2025-02-24T14:08:47Z</time>
      </trkpt>
      <trkpt lat="43.48221" lon="6.3377">
        <ele>144</ele>
        <time>2025-02-24T14:09:16Z</time>
      </trkpt>
      <trkpt lat="43.48213" lon="6.33764">
        <ele>141.9</ele>
        <time>2025-02-24T14:09:32Z</time>
      </trkpt>
      <trkpt lat="43.48213" lon="6.33751">
        <ele>140.2</ele>
        <time>2025-02-24T14:09:57Z</time>
      </trkpt>
      <trkpt lat="43.48209" lon="6.3374">
        <ele>139.5</ele>
        <time>2025-02-24T14:10:40Z</time>
      </trkpt>
      <trkpt lat="43.48213" lon="6.33727">
        <ele>138.4</ele>
        <time>2025-02-24T14:10:51Z</time>
      </trkpt>
      <trkpt lat="43.48217" lon="6.33715">
        <ele>137.7</ele>
        <time>2025-02-24T14:11:01Z</time>
      </trkpt>
      <trkpt lat="43.4822" lon="6.33703">
        <ele>137.4</ele>
        <time>2025-02-24T14:11:12Z</time>
      </trkpt>
      <trkpt lat="43.48223" lon="6.33691">
        <ele>137.3</ele>
        <time>2025-02-24T14:11:33Z</time>
      </trkpt>
      <trkpt lat="43.48227" lon="6.33679">
        <ele>137.3</ele>
        <time>2025-02-24T14:11:44Z</time>
      </trkpt>
      <trkpt lat="43.4823" lon="6.33666">
        <ele>137.6</ele>
        <time>2025-02-24T14:11:54Z</time>
      </trkpt>
      <trkpt lat="43.48231" lon="6.33654">
        <ele>137.5</ele>
        <time>2025-02-24T14:12:05Z</time>
      </trkpt>
      <trkpt lat="43.48234" lon="6.33641">
        <ele>137</ele>
        <time>2025-02-24T14:12:14Z</time>
      </trkpt>
      <trkpt lat="43.48238" lon="6.3363">
        <ele>137</ele>
        <time>2025-02-24T14:12:24Z</time>
      </trkpt>
      <trkpt lat="43.4824" lon="6.33617">
        <ele>136.5</ele>
        <time>2025-02-24T14:12:35Z</time>
      </trkpt>
      <trkpt lat="43.48245" lon="6.33605">
        <ele>136.6</ele>
        <time>2025-02-24T14:12:45Z</time>
      </trkpt>
      <trkpt lat="43.48243" lon="6.33593">
        <ele>136.3</ele>
        <time>2025-02-24T14:13:23Z</time>
      </trkpt>
      <trkpt lat="43.48252" lon="6.33597">
        <ele>136.3</ele>
        <time>2025-02-24T14:14:02Z</time>
      </trkpt>
      <trkpt lat="43.48247" lon="6.33607">
        <ele>136.9</ele>
        <time>2025-02-24T14:14:27Z</time>
      </trkpt>
      <trkpt lat="43.48239" lon="6.33614">
        <ele>136.7</ele>
        <time>2025-02-24T14:14:43Z</time>
      </trkpt>
      <trkpt lat="43.48232" lon="6.33622">
        <ele>136.3</ele>
        <time>2025-02-24T14:14:55Z</time>
      </trkpt>
      <trkpt lat="43.48222" lon="6.33624">
        <ele>136.3</ele>
        <time>2025-02-24T14:15:37Z</time>
      </trkpt>
      <trkpt lat="43.48215" lon="6.3363">
        <ele>136.1</ele>
        <time>2025-02-24T14:16:04Z</time>
      </trkpt>
      <trkpt lat="43.48207" lon="6.33639">
        <ele>136.2</ele>
        <time>2025-02-24T14:16:21Z</time>
      </trkpt>
      <trkpt lat="43.48202" lon="6.3365">
        <ele>136</ele>
        <time>2025-02-24T14:16:31Z</time>
      </trkpt>
      <trkpt lat="43.48198" lon="6.33661">
        <ele>135.9</ele>
        <time>2025-02-24T14:16:41Z</time>
      </trkpt>
      <trkpt lat="43.48192" lon="6.33671">
        <ele>135.6</ele>
        <time>2025-02-24T14:16:52Z</time>
      </trkpt>
      <trkpt lat="43.48186" lon="6.33681">
        <ele>135.5</ele>
        <time>2025-02-24T14:17:01Z</time>
      </trkpt>
      <trkpt lat="43.4818" lon="6.33691">
        <ele>135.1</ele>
        <time>2025-02-24T14:17:11Z</time>
      </trkpt>
      <trkpt lat="43.48174" lon="6.33701">
        <ele>134.8</ele>
        <time>2025-02-24T14:17:23Z</time>
      </trkpt>
      <trkpt lat="43.4817" lon="6.33713">
        <ele>134.8</ele>
        <time>2025-02-24T14:17:39Z</time>
      </trkpt>
      <trkpt lat="43.48164" lon="6.33723">
        <ele>134.6</ele>
        <time>2025-02-24T14:17:51Z</time>
      </trkpt>
      <trkpt lat="43.48156" lon="6.33731">
        <ele>134.2</ele>
        <time>2025-02-24T14:18:02Z</time>
      </trkpt>
      <trkpt lat="43.48148" lon="6.33736">
        <ele>134.1</ele>
        <time>2025-02-24T14:18:11Z</time>
      </trkpt>
      <trkpt lat="43.48138" lon="6.33739">
        <ele>133.9</ele>
        <time>2025-02-24T14:18:20Z</time>
      </trkpt>
      <trkpt lat="43.48129" lon="6.33738">
        <ele>133.7</ele>
        <time>2025-02-24T14:18:28Z</time>
      </trkpt>
      <trkpt lat="43.4812" lon="6.33734">
        <ele>133.5</ele>
        <time>2025-02-24T14:18:36Z</time>
      </trkpt>
      <trkpt lat="43.4811" lon="6.3373">
        <ele>133.5</ele>
        <time>2025-02-24T14:18:45Z</time>
      </trkpt>
      <trkpt lat="43.48101" lon="6.33726">
        <ele>133.4</ele>
        <time>2025-02-24T14:18:52Z</time>
      </trkpt>
      <trkpt lat="43.48092" lon="6.33723">
        <ele>133.1</ele>
        <time>2025-02-24T14:18:59Z</time>
      </trkpt>
      <trkpt lat="43.48083" lon="6.33717">
        <ele>133.1</ele>
        <time>2025-02-24T14:19:08Z</time>
      </trkpt>
      <trkpt lat="43.48075" lon="6.33711">
        <ele>133</ele>
        <time>2025-02-24T14:19:17Z</time>
      </trkpt>
      <trkpt lat="43.48067" lon="6.33702">
        <ele>133</ele>
        <time>2025-02-24T14:19:26Z</time>
      </trkpt>
      <trkpt lat="43.4806" lon="6.33694">
        <ele>132.7</ele>
        <time>2025-02-24T14:19:35Z</time>
      </trkpt>
      <trkpt lat="43.48052" lon="6.33686">
        <ele>132.7</ele>
        <time>2025-02-24T14:19:45Z</time>
      </trkpt>
      <trkpt lat="43.48045" lon="6.33678">
        <ele>132.6</ele>
        <time>2025-02-24T14:19:55Z</time>
      </trkpt>
      <trkpt lat="43.48038" lon="6.33671">
        <ele>132.4</ele>
        <time>2025-02-24T14:20:04Z</time>
      </trkpt>
      <trkpt lat="43.48031" lon="6.33661">
        <ele>132.2</ele>
        <time>2025-02-24T14:20:13Z</time>
      </trkpt>
      <trkpt lat="43.48024" lon="6.33652">
        <ele>131.8</ele>
        <time>2025-02-24T14:20:24Z</time>
      </trkpt>
      <trkpt lat="43.48017" lon="6.33644">
        <ele>131.1</ele>
        <time>2025-02-24T14:20:34Z</time>
      </trkpt>
      <trkpt lat="43.48011" lon="6.33633">
        <ele>130.9</ele>
        <time>2025-02-24T14:20:44Z</time>
      </trkpt>
      <trkpt lat="43.48002" lon="6.33627">
        <ele>130.7</ele>
        <time>2025-02-24T14:20:54Z</time>
      </trkpt>
      <trkpt lat="43.47995" lon="6.33619">
        <ele>130.5</ele>
        <time>2025-02-24T14:21:04Z</time>
      </trkpt>
      <trkpt lat="43.47988" lon="6.3361">
        <ele>130.4</ele>
        <time>2025-02-24T14:21:13Z</time>
      </trkpt>
      <trkpt lat="43.47981" lon="6.33601">
        <ele>130.2</ele>
        <time>2025-02-24T14:21:23Z</time>
      </trkpt>
      <trkpt lat="43.47974" lon="6.33594">
        <ele>130.1</ele>
        <time>2025-02-24T14:21:31Z</time>
      </trkpt>
      <trkpt lat="43.47966" lon="6.33588">
        <ele>130</ele>
        <time>2025-02-24T14:21:40Z</time>
      </trkpt>
      <trkpt lat="43.47958" lon="6.3358">
        <ele>129.8</ele>
        <time>2025-02-24T14:21:49Z</time>
      </trkpt>
      <trkpt lat="43.47949" lon="6.33576">
        <ele>129.8</ele>
        <time>2025-02-24T14:21:57Z</time>
      </trkpt>
      <trkpt lat="43.47942" lon="6.33569">
        <ele>129.8</ele>
        <time>2025-02-24T14:22:10Z</time>
      </trkpt>
      <trkpt lat="43.47933" lon="6.33565">
        <ele>129.7</ele>
        <time>2025-02-24T14:22:18Z</time>
      </trkpt>
      <trkpt lat="43.47924" lon="6.33561">
        <ele>129.7</ele>
        <time>2025-02-24T14:22:27Z</time>
      </trkpt>
      <trkpt lat="43.47915" lon="6.33556">
        <ele>129.6</ele>
        <time>2025-02-24T14:22:37Z</time>
      </trkpt>
      <trkpt lat="43.47905" lon="6.33555">
        <ele>129.5</ele>
        <time>2025-02-24T14:22:48Z</time>
      </trkpt>
      <trkpt lat="43.47896" lon="6.33552">
        <ele>129.2</ele>
        <time>2025-02-24T14:22:59Z</time>
      </trkpt>
      <trkpt lat="43.47888" lon="6.33545">
        <ele>129</ele>
        <time>2025-02-24T14:23:09Z</time>
      </trkpt>
      <trkpt lat="43.4788" lon="6.3354">
        <ele>128.8</ele>
        <time>2025-02-24T14:23:17Z</time>
      </trkpt>
      <trkpt lat="43.47872" lon="6.33533">
        <ele>128.6</ele>
        <time>2025-02-24T14:23:27Z</time>
      </trkpt>
      <trkpt lat="43.47864" lon="6.33525">
        <ele>128.2</ele>
        <time>2025-02-24T14:23:36Z</time>
      </trkpt>
      <trkpt lat="43.47858" lon="6.33515">
        <ele>127.9</ele>
        <time>2025-02-24T14:23:44Z</time>
      </trkpt>
      <trkpt lat="43.4785" lon="6.33508">
        <ele>127.7</ele>
        <time>2025-02-24T14:23:57Z</time>
      </trkpt>
      <trkpt lat="43.4785" lon="6.33495">
        <ele>127.8</ele>
        <time>2025-02-24T14:24:08Z</time>
      </trkpt>
      <trkpt lat="43.47845" lon="6.33484">
        <ele>127.5</ele>
        <time>2025-02-24T14:24:18Z</time>
      </trkpt>
      <trkpt lat="43.47841" lon="6.33471">
        <ele>127.4</ele>
        <time>2025-02-24T14:24:26Z</time>
      </trkpt>
      <trkpt lat="43.47837" lon="6.3346">
        <ele>127.2</ele>
        <time>2025-02-24T14:24:33Z</time>
      </trkpt>
      <trkpt lat="43.47833" lon="6.33448">
        <ele>127</ele>
        <time>2025-02-24T14:24:40Z</time>
      </trkpt>
      <trkpt lat="43.4783" lon="6.33435">
        <ele>126.8</ele>
        <time>2025-02-24T14:24:49Z</time>
      </trkpt>
      <trkpt lat="43.47825" lon="6.33424">
        <ele>126.6</ele>
        <time>2025-02-24T14:24:58Z</time>
      </trkpt>
      <trkpt lat="43.47821" lon="6.33412">
        <ele>126.3</ele>
        <time>2025-02-24T14:25:07Z</time>
      </trkpt>
      <trkpt lat="43.47819" lon="6.334">
        <ele>126.2</ele>
        <time>2025-02-24T14:25:15Z</time>
      </trkpt>
      <trkpt lat="43.47815" lon="6.33388">
        <ele>126.1</ele>
        <time>2025-02-24T14:25:24Z</time>
      </trkpt>
      <trkpt lat="43.4781" lon="6.33378">
        <ele>126.2</ele>
        <time>2025-02-24T14:25:35Z</time>
      </trkpt>
      <trkpt lat="43.47801" lon="6.33373">
        <ele>126.1</ele>
        <time>2025-02-24T14:25:45Z</time>
      </trkpt>
      <trkpt lat="43.47795" lon="6.33362">
        <ele>125.9</ele>
        <time>2025-02-24T14:25:56Z</time>
      </trkpt>
      <trkpt lat="43.4779" lon="6.3335">
        <ele>125.5</ele>
        <time>2025-02-24T14:26:07Z</time>
      </trkpt>
      <trkpt lat="43.47787" lon="6.33337">
        <ele>125.2</ele>
        <time>2025-02-24T14:26:18Z</time>
      </trkpt>
      <trkpt lat="43.47785" lon="6.33324">
        <ele>125.1</ele>
        <time>2025-02-24T14:26:28Z</time>
      </trkpt>
      <trkpt lat="43.47783" lon="6.33311">
        <ele>125.2</ele>
        <time>2025-02-24T14:26:36Z</time>
      </trkpt>
      <trkpt lat="43.4778" lon="6.33299">
        <ele>125.1</ele>
        <time>2025-02-24T14:26:44Z</time>
      </trkpt>
      <trkpt lat="43.47777" lon="6.33287">
        <ele>125.2</ele>
        <time>2025-02-24T14:26:53Z</time>
      </trkpt>
      <trkpt lat="43.47774" lon="6.33275">
        <ele>125.4</ele>
        <time>2025-02-24T14:27:01Z</time>
      </trkpt>
      <trkpt lat="43.4777" lon="6.33264">
        <ele>125.7</ele>
        <time>2025-02-24T14:27:09Z</time>
      </trkpt>
      <trkpt lat="43.47768" lon="6.33251">
        <ele>125.4</ele>
        <time>2025-02-24T14:27:18Z</time>
      </trkpt>
      <trkpt lat="43.47764" lon="6.3324">
        <ele>125.3</ele>
        <time>2025-02-24T14:27:27Z</time>
      </trkpt>
      <trkpt lat="43.47759" lon="6.33228">
        <ele>124.9</ele>
        <time>2025-02-24T14:27:36Z</time>
      </trkpt>
      <trkpt lat="43.47756" lon="6.33216">
        <ele>124.5</ele>
        <time>2025-02-24T14:27:45Z</time>
      </trkpt>
      <trkpt lat="43.47751" lon="6.33204">
        <ele>124.2</ele>
        <time>2025-02-24T14:27:57Z</time>
      </trkpt>
      <trkpt lat="43.47747" lon="6.33192">
        <ele>123.9</ele>
        <time>2025-02-24T14:28:06Z</time>
      </trkpt>
      <trkpt lat="43.4774" lon="6.33183">
        <ele>123.7</ele>
        <time>2025-02-24T14:28:15Z</time>
      </trkpt>
      <trkpt lat="43.47735" lon="6.33172">
        <ele>123.2</ele>
        <time>2025-02-24T14:28:25Z</time>
      </trkpt>
      <trkpt lat="43.47729" lon="6.33163">
        <ele>123.4</ele>
        <time>2025-02-24T14:28:35Z</time>
      </trkpt>
      <trkpt lat="43.47723" lon="6.33153">
        <ele>123</ele>
        <time>2025-02-24T14:28:43Z</time>
      </trkpt>
      <trkpt lat="43.47718" lon="6.33142">
        <ele>122.7</ele>
        <time>2025-02-24T14:28:54Z</time>
      </trkpt>
      <trkpt lat="43.47711" lon="6.33132">
        <ele>122.5</ele>
        <time>2025-02-24T14:29:08Z</time>
      </trkpt>
      <trkpt lat="43.47705" lon="6.33122">
        <ele>122.7</ele>
        <time>2025-02-24T14:29:17Z</time>
      </trkpt>
      <trkpt lat="43.47697" lon="6.33115">
        <ele>122.8</ele>
        <time>2025-02-24T14:29:26Z</time>
      </trkpt>
      <trkpt lat="43.47689" lon="6.33109">
        <ele>122.7</ele>
        <time>2025-02-24T14:29:34Z</time>
      </trkpt>
      <trkpt lat="43.4768" lon="6.33102">
        <ele>122.5</ele>
        <time>2025-02-24T14:29:42Z</time>
      </trkpt>
      <trkpt lat="43.47673" lon="6.33093">
        <ele>122.5</ele>
        <time>2025-02-24T14:29:51Z</time>
      </trkpt>
      <trkpt lat="43.47667" lon="6.33084">
        <ele>122.5</ele>
        <time>2025-02-24T14:30:00Z</time>
      </trkpt>
      <trkpt lat="43.47661" lon="6.33073">
        <ele>122.4</ele>
        <time>2025-02-24T14:30:11Z</time>
      </trkpt>
      <trkpt lat="43.47666" lon="6.33063">
        <ele>121.5</ele>
        <time>2025-02-24T14:31:33Z</time>
      </trkpt>
      <trkpt lat="43.47674" lon="6.33055">
        <ele>120.9</ele>
        <time>2025-02-24T14:31:58Z</time>
      </trkpt>
      <trkpt lat="43.47683" lon="6.33054">
        <ele>123.2</ele>
        <time>2025-02-24T14:32:19Z</time>
      </trkpt>
      <trkpt lat="43.4769" lon="6.33044">
        <ele>126.3</ele>
        <time>2025-02-24T14:32:43Z</time>
      </trkpt>
      <trkpt lat="43.47696" lon="6.33035">
        <ele>128.7</ele>
        <time>2025-02-24T14:33:03Z</time>
      </trkpt>
      <trkpt lat="43.47704" lon="6.33029">
        <ele>131.4</ele>
        <time>2025-02-24T14:33:45Z</time>
      </trkpt>
      <trkpt lat="43.47712" lon="6.33023">
        <ele>133.1</ele>
        <time>2025-02-24T14:34:00Z</time>
      </trkpt>
      <trkpt lat="43.47721" lon="6.33018">
        <ele>134.8</ele>
        <time>2025-02-24T14:34:19Z</time>
      </trkpt>
      <trkpt lat="43.47729" lon="6.33011">
        <ele>135.6</ele>
        <time>2025-02-24T14:34:33Z</time>
      </trkpt>
      <trkpt lat="43.47736" lon="6.33003">
        <ele>136.1</ele>
        <time>2025-02-24T14:35:11Z</time>
      </trkpt>
      <trkpt lat="43.47746" lon="6.33001">
        <ele>136.6</ele>
        <time>2025-02-24T14:35:44Z</time>
      </trkpt>
      <trkpt lat="43.47755" lon="6.32997">
        <ele>137.4</ele>
        <time>2025-02-24T14:36:01Z</time>
      </trkpt>
      <trkpt lat="43.47764" lon="6.32994">
        <ele>137.9</ele>
        <time>2025-02-24T14:36:10Z</time>
      </trkpt>
      <trkpt lat="43.47773" lon="6.32988">
        <ele>138.3</ele>
        <time>2025-02-24T14:36:20Z</time>
      </trkpt>
      <trkpt lat="43.47781" lon="6.32983">
        <ele>138.9</ele>
        <time>2025-02-24T14:36:31Z</time>
      </trkpt>
      <trkpt lat="43.47791" lon="6.3298">
        <ele>139.5</ele>
        <time>2025-02-24T14:36:41Z</time>
      </trkpt>
      <trkpt lat="43.478" lon="6.32976">
        <ele>139.9</ele>
        <time>2025-02-24T14:36:51Z</time>
      </trkpt>
      <trkpt lat="43.47809" lon="6.32973">
        <ele>140.6</ele>
        <time>2025-02-24T14:37:05Z</time>
      </trkpt>
      <trkpt lat="43.47818" lon="6.32972">
        <ele>141.5</ele>
        <time>2025-02-24T14:37:18Z</time>
      </trkpt>
      <trkpt lat="43.47827" lon="6.32968">
        <ele>142.3</ele>
        <time>2025-02-24T14:37:33Z</time>
      </trkpt>
      <trkpt lat="43.47836" lon="6.32963">
        <ele>143.5</ele>
        <time>2025-02-24T14:37:46Z</time>
      </trkpt>
      <trkpt lat="43.47846" lon="6.32958">
        <ele>144.6</ele>
        <time>2025-02-24T14:38:00Z</time>
      </trkpt>
      <trkpt lat="43.47855" lon="6.32954">
        <ele>145.3</ele>
        <time>2025-02-24T14:38:11Z</time>
      </trkpt>
      <trkpt lat="43.47864" lon="6.32949">
        <ele>145.9</ele>
        <time>2025-02-24T14:38:21Z</time>
      </trkpt>
      <trkpt lat="43.47873" lon="6.32948">
        <ele>147.1</ele>
        <time>2025-02-24T14:38:34Z</time>
      </trkpt>
      <trkpt lat="43.4788" lon="6.32956">
        <ele>147.8</ele>
        <time>2025-02-24T14:38:47Z</time>
      </trkpt>
      <trkpt lat="43.47885" lon="6.32968">
        <ele>148.2</ele>
        <time>2025-02-24T14:38:57Z</time>
      </trkpt>
      <trkpt lat="43.47889" lon="6.32979">
        <ele>148</ele>
        <time>2025-02-24T14:39:06Z</time>
      </trkpt>
      <trkpt lat="43.47893" lon="6.32991">
        <ele>147.8</ele>
        <time>2025-02-24T14:39:17Z</time>
      </trkpt>
      <trkpt lat="43.47897" lon="6.33002">
        <ele>147.2</ele>
        <time>2025-02-24T14:39:27Z</time>
      </trkpt>
      <trkpt lat="43.47904" lon="6.33012">
        <ele>147.1</ele>
        <time>2025-02-24T14:39:38Z</time>
      </trkpt>
      <trkpt lat="43.47912" lon="6.33015">
        <ele>147.3</ele>
        <time>2025-02-24T14:39:51Z</time>
      </trkpt>
      <trkpt lat="43.47921" lon="6.33013">
        <ele>146.6</ele>
        <time>2025-02-24T14:40:02Z</time>
      </trkpt>
      <trkpt lat="43.47931" lon="6.33011">
        <ele>145.5</ele>
        <time>2025-02-24T14:40:17Z</time>
      </trkpt>
      <trkpt lat="43.4794" lon="6.3301">
        <ele>145.1</ele>
        <time>2025-02-24T14:40:29Z</time>
      </trkpt>
      <trkpt lat="43.4795" lon="6.33009">
        <ele>145.8</ele>
        <time>2025-02-24T14:40:39Z</time>
      </trkpt>
      <trkpt lat="43.47959" lon="6.33009">
        <ele>146.1</ele>
        <time>2025-02-24T14:40:51Z</time>
      </trkpt>
      <trkpt lat="43.47969" lon="6.33008">
        <ele>146.3</ele>
        <time>2025-02-24T14:41:03Z</time>
      </trkpt>
      <trkpt lat="43.47978" lon="6.33008">
        <ele>146.5</ele>
        <time>2025-02-24T14:41:13Z</time>
      </trkpt>
      <trkpt lat="43.47988" lon="6.33008">
        <ele>146.7</ele>
        <time>2025-02-24T14:41:23Z</time>
      </trkpt>
      <trkpt lat="43.47998" lon="6.33007">
        <ele>146.9</ele>
        <time>2025-02-24T14:41:35Z</time>
      </trkpt>
      <trkpt lat="43.48007" lon="6.33009">
        <ele>146.9</ele>
        <time>2025-02-24T14:41:47Z</time>
      </trkpt>
      <trkpt lat="43.48016" lon="6.33013">
        <ele>147.1</ele>
        <time>2025-02-24T14:41:58Z</time>
      </trkpt>
      <trkpt lat="43.48024" lon="6.33019">
        <ele>147.5</ele>
        <time>2025-02-24T14:42:09Z</time>
      </trkpt>
      <trkpt lat="43.48034" lon="6.33022">
        <ele>148.1</ele>
        <time>2025-02-24T14:42:19Z</time>
      </trkpt>
      <trkpt lat="43.48043" lon="6.33023">
        <ele>149.1</ele>
        <time>2025-02-24T14:42:29Z</time>
      </trkpt>
      <trkpt lat="43.48053" lon="6.33019">
        <ele>149.3</ele>
        <time>2025-02-24T14:42:40Z</time>
      </trkpt>
      <trkpt lat="43.48062" lon="6.33015">
        <ele>148.9</ele>
        <time>2025-02-24T14:42:50Z</time>
      </trkpt>
      <trkpt lat="43.4807" lon="6.33012">
        <ele>148.7</ele>
        <time>2025-02-24T14:43:00Z</time>
      </trkpt>
      <trkpt lat="43.4808" lon="6.33015">
        <ele>148.6</ele>
        <time>2025-02-24T14:43:10Z</time>
      </trkpt>
      <trkpt lat="43.48089" lon="6.33016">
        <ele>148.6</ele>
        <time>2025-02-24T14:43:20Z</time>
      </trkpt>
      <trkpt lat="43.48099" lon="6.33013">
        <ele>148.8</ele>
        <time>2025-02-24T14:43:30Z</time>
      </trkpt>
      <trkpt lat="43.48109" lon="6.33011">
        <ele>148.9</ele>
        <time>2025-02-24T14:43:39Z</time>
      </trkpt>
      <trkpt lat="43.48118" lon="6.33011">
        <ele>149.2</ele>
        <time>2025-02-24T14:43:49Z</time>
      </trkpt>
      <trkpt lat="43.48127" lon="6.3301">
        <ele>149.6</ele>
        <time>2025-02-24T14:43:58Z</time>
      </trkpt>
      <trkpt lat="43.48137" lon="6.33007">
        <ele>150</ele>
        <time>2025-02-24T14:44:14Z</time>
      </trkpt>
      <trkpt lat="43.48146" lon="6.33004">
        <ele>150.1</ele>
        <time>2025-02-24T14:44:27Z</time>
      </trkpt>
      <trkpt lat="43.48155" lon="6.33001">
        <ele>150.6</ele>
        <time>2025-02-24T14:44:37Z</time>
      </trkpt>
      <trkpt lat="43.48159" lon="6.3299">
        <ele>151.7</ele>
        <time>2025-02-24T14:44:52Z</time>
      </trkpt>
      <trkpt lat="43.48157" lon="6.32977">
        <ele>151.5</ele>
        <time>2025-02-24T14:45:09Z</time>
      </trkpt>
      <trkpt lat="43.48155" lon="6.32965">
        <ele>151.8</ele>
        <time>2025-02-24T14:45:25Z</time>
      </trkpt>
      <trkpt lat="43.48153" lon="6.32953">
        <ele>152</ele>
        <time>2025-02-24T14:45:35Z</time>
      </trkpt>
      <trkpt lat="43.4815" lon="6.32941">
        <ele>152.3</ele>
        <time>2025-02-24T14:45:49Z</time>
      </trkpt>
      <trkpt lat="43.48148" lon="6.32928">
        <ele>152.4</ele>
        <time>2025-02-24T14:46:03Z</time>
      </trkpt>
      <trkpt lat="43.48145" lon="6.32915">
        <ele>152.7</ele>
        <time>2025-02-24T14:46:15Z</time>
      </trkpt>
      <trkpt lat="43.48143" lon="6.32902">
        <ele>152.8</ele>
        <time>2025-02-24T14:46:25Z</time>
      </trkpt>
      <trkpt lat="43.48144" lon="6.3289">
        <ele>153.2</ele>
        <time>2025-02-24T14:46:43Z</time>
      </trkpt>
      <trkpt lat="43.48144" lon="6.32877">
        <ele>153.3</ele>
        <time>2025-02-24T14:46:53Z</time>
      </trkpt>
      <trkpt lat="43.48144" lon="6.32863">
        <ele>153.2</ele>
        <time>2025-02-24T14:47:13Z</time>
      </trkpt>
      <trkpt lat="43.48143" lon="6.32851">
        <ele>152.9</ele>
        <time>2025-02-24T14:47:22Z</time>
      </trkpt>
      <trkpt lat="43.48141" lon="6.32838">
        <ele>152.3</ele>
        <time>2025-02-24T14:47:36Z</time>
      </trkpt>
      <trkpt lat="43.48142" lon="6.32825">
        <ele>151.4</ele>
        <time>2025-02-24T14:47:53Z</time>
      </trkpt>
      <trkpt lat="43.48141" lon="6.32824">
        <ele>151.5</ele>
        <time>2025-02-24T14:48:06Z</time>
      </trkpt>
    </trkseg>
  </trk>
</gpx>